createdAt,value
2016-05-19T00:00:13.226Z,0
2016-05-19T00:01:13.073Z,0
2016-05-19T00:02:13.247Z,0
2016-05-19T00:03:13.234Z,0
2016-05-19T00:04:13.237Z,0
2016-05-19T00:05:13.255Z,0
2016-05-19T00:06:13.258Z,0
2016-05-19T00:07:13.244Z,0
2016-05-19T00:08:13.106Z,0
2016-05-19T00:09:13.250Z,0
2016-05-19T00:10:13.097Z,0
2016-05-19T00:11:13.240Z,0
2016-05-19T00:12:13.242Z,0
2016-05-19T00:13:13.245Z,0
2016-05-19T00:14:13.233Z,0
2016-05-19T00:15:13.236Z,0
2016-05-19T00:16:13.097Z,0
2016-05-19T00:17:13.241Z,0
2016-05-19T00:18:13.244Z,0
2016-05-19T00:19:13.246Z,0
2016-05-19T00:20:13.280Z,0
2016-05-19T00:21:13.251Z,0
2016-05-19T00:22:13.254Z,0
2016-05-19T00:23:13.522Z,0
2016-05-19T00:24:13.118Z,0
2016-05-19T00:25:13.091Z,0
2016-05-19T00:26:13.249Z,0
2016-05-19T00:27:13.235Z,0
2016-05-19T00:28:13.254Z,0
2016-05-19T00:29:13.085Z,0
2016-05-19T00:30:13.260Z,0
2016-05-19T00:31:13.246Z,0
2016-05-19T00:32:13.249Z,0
2016-05-19T00:33:13.095Z,0
2016-05-19T00:34:13.254Z,0
2016-05-19T00:35:13.242Z,0
2016-05-19T00:36:13.260Z,0
2016-05-19T00:37:13.248Z,0
2016-05-19T00:38:13.422Z,0
2016-05-19T00:39:13.253Z,0
2016-05-19T00:40:13.240Z,0
2016-05-19T00:41:13.242Z,0
2016-05-19T00:42:13.245Z,0
2016-05-19T00:43:13.264Z,0
2016-05-19T00:44:13.250Z,0
2016-05-19T00:45:13.253Z,0
2016-05-19T00:46:13.256Z,0
2016-05-19T00:47:13.274Z,0
2016-05-19T00:48:13.261Z,0
2016-05-19T00:49:13.264Z,0
2016-05-19T00:50:13.094Z,0
2016-05-19T00:51:13.254Z,0
2016-05-19T00:52:12.944Z,0
2016-05-19T00:53:13.524Z,0
2016-05-19T00:54:13.121Z,0
2016-05-19T00:55:13.108Z,0
2016-05-19T00:56:13.111Z,0
2016-05-19T00:57:13.114Z,0
2016-05-19T00:58:13.257Z,0
2016-05-19T00:59:13.259Z,0
2016-05-19T01:00:13.091Z,0
2016-05-19T01:01:13.093Z,0
2016-05-19T01:02:13.267Z,0
2016-05-19T01:03:13.239Z,0
2016-05-19T01:04:13.257Z,0
2016-05-19T01:05:13.260Z,0
2016-05-19T01:06:13.263Z,0
2016-05-19T01:07:13.109Z,0
2016-05-19T01:08:13.268Z,0
2016-05-19T01:09:13.256Z,0
2016-05-19T01:10:13.117Z,0
2016-05-19T01:11:13.261Z,0
2016-05-19T01:12:13.106Z,0
2016-05-19T01:13:13.109Z,0
2016-05-19T01:14:13.253Z,0
2016-05-19T01:15:13.100Z,0
2016-05-19T01:16:13.274Z,0
2016-05-19T01:17:13.261Z,0
2016-05-19T01:18:13.264Z,0
2016-05-19T01:19:13.267Z,0
2016-05-19T01:20:13.269Z,0
2016-05-19T01:21:13.115Z,0
2016-05-19T01:22:13.103Z,0
2016-05-19T01:23:13.544Z,0
2016-05-19T01:24:13.280Z,0
2016-05-19T01:25:13.110Z,0
2016-05-19T01:26:13.254Z,0
2016-05-19T01:27:13.272Z,0
2016-05-19T01:28:13.275Z,0
2016-05-19T01:29:13.262Z,0
2016-05-19T01:30:13.249Z,0
2016-05-19T01:31:13.127Z,0
2016-05-19T01:32:13.270Z,0
2016-05-19T01:33:13.273Z,0
2016-05-19T01:34:13.276Z,0
2016-05-19T01:35:13.122Z,0
2016-05-19T01:36:13.281Z,0
2016-05-19T01:37:13.268Z,0
2016-05-19T01:38:12.958Z,0
2016-05-19T01:39:13.259Z,0
2016-05-19T01:40:13.260Z,0
2016-05-19T01:41:13.106Z,0
2016-05-19T01:42:13.250Z,0
2016-05-19T01:43:13.269Z,0
2016-05-19T01:44:13.256Z,0
2016-05-19T01:45:13.259Z,0
2016-05-19T01:46:13.120Z,0
2016-05-19T01:47:13.264Z,0
2016-05-19T01:48:13.110Z,0
2016-05-19T01:49:13.269Z,0
2016-05-19T01:50:13.116Z,0
2016-05-19T01:51:13.119Z,0
2016-05-19T01:52:12.964Z,0
2016-05-19T01:53:13.124Z,0
2016-05-19T01:54:13.111Z,0
2016-05-19T01:55:13.269Z,0
2016-05-19T01:56:13.132Z,0
2016-05-19T01:57:13.275Z,0
2016-05-19T01:58:13.121Z,0
2016-05-19T01:59:12.968Z,0
2016-05-19T02:00:12.940Z,0
2016-05-19T02:01:12.973Z,0
2016-05-19T02:02:13.116Z,0
2016-05-19T02:03:13.259Z,0
2016-05-19T02:04:13.262Z,0
2016-05-19T02:05:13.282Z,0
2016-05-19T02:06:13.268Z,0
2016-05-19T02:07:13.286Z,0
2016-05-19T02:08:13.070Z,0
2016-05-19T02:09:13.104Z,0
2016-05-19T02:10:13.295Z,0
2016-05-19T02:11:13.282Z,0
2016-05-19T02:12:13.128Z,0
2016-05-19T02:13:13.115Z,0
2016-05-19T02:14:12.946Z,0
2016-05-19T02:15:13.276Z,0
2016-05-19T02:16:13.279Z,0
2016-05-19T02:17:13.266Z,0
2016-05-19T02:18:13.144Z,0
2016-05-19T02:19:13.116Z,0
2016-05-19T02:20:13.289Z,0
2016-05-19T02:21:13.277Z,0
2016-05-19T02:22:12.827Z,0
2016-05-19T02:23:13.157Z,0
2016-05-19T02:24:13.347Z,0
2016-05-19T02:25:13.280Z,0
2016-05-19T02:26:13.299Z,0
2016-05-19T02:27:13.269Z,0
2016-05-19T02:28:13.116Z,0
2016-05-19T02:29:12.947Z,0
2016-05-19T02:30:13.278Z,0
2016-05-19T02:31:13.280Z,0
2016-05-19T02:32:13.143Z,0
2016-05-19T02:33:13.113Z,0
2016-05-19T02:34:13.116Z,0
2016-05-19T02:35:13.119Z,0
2016-05-19T02:36:12.966Z,0
2016-05-19T02:37:12.968Z,0
2016-05-19T02:38:13.784Z,0
2016-05-19T02:39:13.146Z,0
2016-05-19T02:40:13.273Z,0
2016-05-19T02:41:13.163Z,0
2016-05-19T02:42:13.366Z,0
2016-05-19T02:43:13.396Z,0
2016-05-19T02:44:13.131Z,0
2016-05-19T02:45:13.317Z,0
2016-05-19T02:46:13.375Z,0
2016-05-19T02:47:13.379Z,0
2016-05-19T02:48:13.380Z,0
2016-05-19T02:49:13.399Z,0
2016-05-19T02:50:13.417Z,0
2016-05-19T02:51:13.256Z,0
2016-05-19T02:52:13.422Z,0
2016-05-19T02:53:13.477Z,0
2016-05-19T02:54:13.734Z,0
2016-05-19T02:55:13.587Z,0
2016-05-19T02:56:13.609Z,0
2016-05-19T02:57:13.301Z,0
2016-05-19T02:58:13.446Z,0
2016-05-19T02:59:13.623Z,0
2016-05-19T03:00:13.628Z,0
2016-05-19T03:01:13.632Z,0
2016-05-19T03:02:13.604Z,0
2016-05-19T03:03:13.622Z,0
2016-05-19T03:04:13.611Z,0
2016-05-19T03:05:13.614Z,0
2016-05-19T03:06:13.461Z,0
2016-05-19T03:07:13.621Z,0
2016-05-19T03:08:13.779Z,0
2016-05-19T03:09:13.611Z,0
2016-05-19T03:10:13.613Z,0
2016-05-19T03:11:13.632Z,0
2016-05-19T03:12:13.619Z,0
2016-05-19T03:13:13.325Z,0
2016-05-19T03:14:13.625Z,0
2016-05-19T03:15:13.456Z,0
2016-05-19T03:16:13.614Z,0
2016-05-19T03:17:13.617Z,0
2016-05-19T03:18:13.620Z,0
2016-05-19T03:19:13.482Z,0
2016-05-19T03:20:13.469Z,0
2016-05-19T03:21:13.613Z,0
2016-05-19T03:22:13.474Z,0
2016-05-19T03:23:14.024Z,0
2016-05-19T03:24:13.463Z,0
2016-05-19T03:25:13.623Z,0
2016-05-19T03:26:13.626Z,0
2016-05-19T03:27:13.471Z,0
2016-05-19T03:28:13.459Z,0
2016-05-19T03:29:13.618Z,0
2016-05-19T03:30:13.480Z,0
2016-05-19T03:31:13.607Z,0
2016-05-19T03:32:13.626Z,0
2016-05-19T03:33:13.473Z,0
2016-05-19T03:34:13.491Z,0
2016-05-19T03:35:13.619Z,0
2016-05-19T03:36:13.637Z,0
2016-05-19T03:37:13.468Z,0
2016-05-19T03:38:13.939Z,0
2016-05-19T03:39:13.628Z,0
2016-05-19T03:40:13.617Z,0
2016-05-19T03:41:13.619Z,0
2016-05-19T03:42:13.637Z,0
2016-05-19T03:43:13.561Z,0
2016-05-19T03:44:13.642Z,0
2016-05-19T03:45:13.645Z,0
2016-05-19T03:46:13.632Z,0
2016-05-19T03:47:13.619Z,0
2016-05-19T03:48:13.622Z,0
2016-05-19T03:49:13.625Z,0
2016-05-19T03:50:13.644Z,0
2016-05-19T03:51:13.615Z,0
2016-05-19T03:52:13.477Z,0
2016-05-19T03:53:14.183Z,0
2016-05-19T03:54:13.624Z,0
2016-05-19T03:55:13.141Z,0
2016-05-19T03:56:13.472Z,0
2016-05-19T03:57:13.474Z,0
2016-05-19T03:58:13.446Z,0
2016-05-19T03:59:13.637Z,0
2016-05-19T04:00:13.467Z,0
2016-05-19T04:01:13.610Z,0
2016-05-19T04:02:13.472Z,0
2016-05-19T04:03:13.475Z,0
2016-05-19T04:04:13.634Z,0
2016-05-19T04:05:13.621Z,0
2016-05-19T04:06:13.639Z,0
2016-05-19T04:07:13.626Z,0
2016-05-19T04:08:13.567Z,0
2016-05-19T04:09:13.476Z,0
2016-05-19T04:10:13.635Z,0
2016-05-19T04:11:13.622Z,0
2016-05-19T04:12:13.625Z,0
2016-05-19T04:13:13.471Z,0
2016-05-19T04:14:13.458Z,0
2016-05-19T04:15:13.616Z,0
2016-05-19T04:16:13.635Z,0
2016-05-19T04:17:13.622Z,0
2016-05-19T04:18:13.469Z,0
2016-05-19T04:19:13.627Z,0
2016-05-19T04:20:13.489Z,0
2016-05-19T04:21:13.616Z,0
2016-05-19T04:22:13.479Z,0
2016-05-19T04:23:13.466Z,0
2016-05-19T04:24:13.469Z,0
2016-05-19T04:25:13.644Z,0
2016-05-19T04:26:13.630Z,0
2016-05-19T04:27:13.633Z,0
2016-05-19T04:28:13.636Z,0
2016-05-19T04:29:13.468Z,0
2016-05-19T04:30:13.626Z,5
2016-05-19T04:31:13.488Z,5
2016-05-19T04:32:13.460Z,5
2016-05-19T04:33:13.634Z,5
2016-05-19T04:34:13.621Z,5
2016-05-19T04:35:13.733Z,5
2016-05-19T04:36:13.454Z,5
2016-05-19T04:37:13.629Z,5
2016-05-19T04:38:13.475Z,5
2016-05-19T04:39:13.479Z,5
2016-05-19T04:40:13.653Z,5
2016-05-19T04:41:13.467Z,5
2016-05-19T04:42:13.487Z,5
2016-05-19T04:43:13.630Z,5
2016-05-19T04:44:13.617Z,5
2016-05-19T04:45:13.635Z,5
2016-05-19T04:46:13.638Z,5
2016-05-19T04:47:13.624Z,5
2016-05-19T04:48:13.487Z,5
2016-05-19T04:49:13.630Z,10
2016-05-19T04:50:13.477Z,10
2016-05-19T04:51:13.480Z,10
2016-05-19T04:52:13.482Z,10
2016-05-19T04:53:13.719Z,10
2016-05-19T04:54:13.502Z,10
2016-05-19T04:55:13.631Z,10
2016-05-19T04:56:13.477Z,10
2016-05-19T04:57:13.495Z,10
2016-05-19T04:58:13.467Z,10
2016-05-19T04:59:13.626Z,10
2016-05-19T05:00:13.629Z,15
2016-05-19T05:01:13.491Z,15
2016-05-19T05:02:13.634Z,15
2016-05-19T05:03:13.637Z,15
2016-05-19T05:04:13.623Z,10
2016-05-19T05:05:13.642Z,10
2016-05-19T05:06:13.645Z,15
2016-05-19T05:07:13.476Z,15
2016-05-19T05:08:13.697Z,15
2016-05-19T05:09:13.856Z,15
2016-05-19T05:10:13.312Z,15
2016-05-19T05:11:13.470Z,15
2016-05-19T05:12:13.473Z,15
2016-05-19T05:13:13.320Z,15
2016-05-19T05:14:13.620Z,15
2016-05-19T05:15:13.637Z,15
2016-05-19T05:16:13.640Z,15
2016-05-19T05:17:13.628Z,15
2016-05-19T05:18:13.161Z,15
2016-05-19T05:19:13.492Z,10
2016-05-19T05:20:13.480Z,10
2016-05-19T05:21:13.622Z,10
2016-05-19T05:22:13.625Z,10
2016-05-19T05:23:13.783Z,10
2016-05-19T05:24:13.615Z,15
2016-05-19T05:25:13.322Z,10
2016-05-19T05:26:13.621Z,10
2016-05-19T05:27:13.466Z,15
2016-05-19T05:28:13.641Z,15
2016-05-19T05:29:13.629Z,15
2016-05-19T05:30:13.647Z,15
2016-05-19T05:31:13.477Z,15
2016-05-19T05:32:13.480Z,15
2016-05-19T05:33:13.483Z,15
2016-05-19T05:34:13.642Z,15
2016-05-19T05:35:13.473Z,15
2016-05-19T05:36:13.632Z,20
2016-05-19T05:37:13.462Z,20
2016-05-19T05:38:13.918Z,15
2016-05-19T05:39:13.640Z,20
2016-05-19T05:40:13.627Z,25
2016-05-19T05:41:13.489Z,25
2016-05-19T05:42:13.632Z,20
2016-05-19T05:43:13.479Z,20
2016-05-19T05:44:13.623Z,20
2016-05-19T05:45:13.484Z,20
2016-05-19T05:46:13.471Z,20
2016-05-19T05:47:13.473Z,20
2016-05-19T05:48:13.633Z,15
2016-05-19T05:49:13.635Z,15
2016-05-19T05:50:13.623Z,20
2016-05-19T05:51:13.641Z,20
2016-05-19T05:52:13.472Z,20
2016-05-19T05:53:14.975Z,20
2016-05-19T05:54:13.321Z,20
2016-05-19T05:55:13.480Z,25
2016-05-19T05:56:13.639Z,25
2016-05-19T05:57:13.641Z,25
2016-05-19T05:58:13.488Z,25
2016-05-19T05:59:13.474Z,30
2016-05-19T06:00:13.633Z,30
2016-05-19T06:01:13.636Z,30
2016-05-19T06:02:13.483Z,30
2016-05-19T06:03:13.330Z,25
2016-05-19T06:04:13.629Z,25
2016-05-19T06:05:13.632Z,35
2016-05-19T06:06:13.494Z,35
2016-05-19T06:07:13.324Z,30
2016-05-19T06:08:13.859Z,25
2016-05-19T06:09:13.626Z,30
2016-05-19T06:10:13.629Z,30
2016-05-19T06:11:13.476Z,35
2016-05-19T06:12:13.634Z,35
2016-05-19T06:13:13.622Z,35
2016-05-19T06:14:13.625Z,35
2016-05-19T06:15:13.628Z,35
2016-05-19T06:16:13.631Z,35
2016-05-19T06:17:13.633Z,30
2016-05-19T06:18:13.636Z,30
2016-05-19T06:19:13.653Z,25
2016-05-19T06:20:13.625Z,25
2016-05-19T06:21:13.486Z,25
2016-05-19T06:22:13.490Z,25
2016-05-19T06:23:13.492Z,25
2016-05-19T06:24:13.620Z,25
2016-05-19T06:25:13.498Z,25
2016-05-19T06:26:13.486Z,25
2016-05-19T06:27:13.644Z,20
2016-05-19T06:28:13.630Z,20
2016-05-19T06:29:13.633Z,20
2016-05-19T06:30:13.496Z,25
2016-05-19T06:31:13.638Z,25
2016-05-19T06:32:13.642Z,25
2016-05-19T06:33:13.488Z,25
2016-05-19T06:34:13.632Z,25
2016-05-19T06:35:13.494Z,25
2016-05-19T06:36:13.652Z,30
2016-05-19T06:37:13.640Z,35
2016-05-19T06:38:13.845Z,35
2016-05-19T06:39:13.801Z,40
2016-05-19T06:40:13.648Z,35
2016-05-19T06:41:13.510Z,25
2016-05-19T06:42:13.481Z,35
2016-05-19T06:43:13.640Z,30
2016-05-19T06:44:13.502Z,30
2016-05-19T06:45:13.662Z,40
2016-05-19T06:46:13.648Z,45
2016-05-19T06:47:13.495Z,40
2016-05-19T06:48:13.482Z,40
2016-05-19T06:49:13.500Z,35
2016-05-19T06:50:13.642Z,35
2016-05-19T06:51:13.630Z,35
2016-05-19T06:52:13.633Z,35
2016-05-19T06:53:13.651Z,40
2016-05-19T06:54:13.483Z,40
2016-05-19T06:55:13.485Z,40
2016-05-19T06:56:13.519Z,35
2016-05-19T06:57:13.647Z,40
2016-05-19T06:58:13.494Z,35
2016-05-19T06:59:13.651Z,25
2016-05-19T07:00:13.639Z,20
2016-05-19T07:01:13.641Z,30
2016-05-19T07:02:13.644Z,40
2016-05-19T07:03:13.631Z,40
2016-05-19T07:04:13.337Z,40
2016-05-19T07:05:13.496Z,40
2016-05-19T07:06:13.655Z,40
2016-05-19T07:07:13.485Z,35
2016-05-19T07:08:13.488Z,40
2016-05-19T07:09:13.476Z,40
2016-05-19T07:10:13.650Z,50
2016-05-19T07:11:13.637Z,50
2016-05-19T07:12:13.656Z,60
2016-05-19T07:13:13.642Z,65
2016-05-19T07:14:13.332Z,60
2016-05-19T07:15:13.648Z,60
2016-05-19T07:16:13.681Z,60
2016-05-19T07:17:13.497Z,60
2016-05-19T07:18:13.656Z,65
2016-05-19T07:19:13.643Z,60
2016-05-19T07:20:13.661Z,60
2016-05-19T07:21:13.648Z,65
2016-05-19T07:22:13.589Z,65
2016-05-19T07:23:13.669Z,65
2016-05-19T07:24:13.641Z,70
2016-05-19T07:25:13.675Z,75
2016-05-19T07:26:14.475Z,70
2016-05-19T07:27:14.336Z,75
2016-05-19T07:28:14.574Z,75
2016-05-19T07:29:13.842Z,75
2016-05-19T07:30:13.845Z,75
2016-05-19T07:31:13.878Z,75
2016-05-19T07:32:14.225Z,75
2016-05-19T07:33:14.352Z,75
2016-05-19T07:34:14.215Z,75
2016-05-19T07:35:14.577Z,75
2016-05-19T07:36:14.455Z,70
2016-05-19T07:37:14.613Z,70
2016-05-19T07:38:14.944Z,75
2016-05-19T07:39:13.899Z,75
2016-05-19T07:40:14.168Z,70
2016-05-19T07:41:14.405Z,70
2016-05-19T07:42:14.423Z,80
2016-05-19T07:43:14.020Z,85
2016-05-19T07:44:14.523Z,80
2016-05-19T07:45:14.587Z,80
2016-05-19T07:46:13.904Z,85
2016-05-19T07:47:14.406Z,85
2016-05-19T07:48:14.048Z,70
2016-05-19T07:49:14.537Z,70
2016-05-19T07:50:14.509Z,70
2016-05-19T07:51:14.136Z,60
2016-05-19T07:52:14.295Z,65
2016-05-19T07:53:14.297Z,70
2016-05-19T07:54:14.472Z,75
2016-05-19T07:55:14.411Z,70
2016-05-19T07:56:14.024Z,70
2016-05-19T07:57:14.323Z,80
2016-05-19T07:58:14.373Z,75
2016-05-19T07:59:14.313Z,75
2016-05-19T08:00:13.878Z,95
2016-05-19T08:01:14.225Z,105
2016-05-19T08:02:13.586Z,100
2016-05-19T08:03:13.558Z,110
2016-05-19T08:04:13.529Z,110
2016-05-19T08:05:13.516Z,110
2016-05-19T08:06:13.535Z,110
2016-05-19T08:07:13.616Z,100
2016-05-19T08:08:14.228Z,95
2016-05-19T08:09:13.685Z,90
2016-05-19T08:10:13.983Z,85
2016-05-19T08:11:14.565Z,90
2016-05-19T08:12:14.520Z,90
2016-05-19T08:13:14.585Z,90
2016-05-19T08:14:14.198Z,85
2016-05-19T08:15:13.887Z,85
2016-05-19T08:16:14.562Z,115
2016-05-19T08:17:13.956Z,130
2016-05-19T08:18:14.005Z,140
2016-05-19T08:19:14.226Z,150
2016-05-19T08:20:13.557Z,140
2016-05-19T08:21:13.606Z,135
2016-05-19T08:22:13.640Z,130
2016-05-19T08:23:13.550Z,125
2016-05-19T08:24:14.161Z,120
2016-05-19T08:25:13.664Z,110
2016-05-19T08:26:14.713Z,100
2016-05-19T08:27:14.482Z,95
2016-05-19T08:28:14.110Z,90
2016-05-19T08:29:14.081Z,90
2016-05-19T08:30:14.162Z,70
2016-05-19T08:31:13.914Z,65
2016-05-19T08:32:14.121Z,70
2016-05-19T08:33:14.577Z,75
2016-05-19T08:34:13.844Z,90
2016-05-19T08:35:14.458Z,95
2016-05-19T08:36:14.007Z,100
2016-05-19T08:37:13.556Z,105
2016-05-19T08:38:14.246Z,115
2016-05-19T08:39:14.218Z,125
2016-05-19T08:40:13.954Z,135
2016-05-19T08:41:13.832Z,140
2016-05-19T08:42:14.210Z,115
2016-05-19T08:43:14.729Z,100
2016-05-19T08:44:14.013Z,100
2016-05-19T08:45:14.390Z,85
2016-05-19T08:46:14.159Z,90
2016-05-19T08:47:13.723Z,110
2016-05-19T08:48:14.320Z,125
2016-05-19T08:49:13.509Z,100
2016-05-19T08:50:14.497Z,80
2016-05-19T08:51:14.125Z,85
2016-05-19T08:52:13.878Z,95
2016-05-19T08:53:13.817Z,100
2016-05-19T08:54:14.555Z,90
2016-05-19T08:55:13.948Z,95
2016-05-19T08:56:13.842Z,110
2016-05-19T08:57:14.219Z,125
2016-05-19T08:58:14.566Z,125
2016-05-19T08:59:13.927Z,110
2016-05-19T09:00:14.289Z,100
2016-05-19T09:01:14.480Z,95
2016-05-19T09:02:14.358Z,105
2016-05-19T09:03:14.095Z,95
2016-05-19T09:04:14.503Z,80
2016-05-19T09:05:14.116Z,70
2016-05-19T09:06:14.447Z,70
2016-05-19T09:07:14.246Z,70
2016-05-19T09:08:14.498Z,75
2016-05-19T09:09:14.579Z,85
2016-05-19T09:10:14.723Z,80
2016-05-19T09:11:14.101Z,85
2016-05-19T09:12:14.509Z,90
2016-05-19T09:13:13.857Z,100
2016-05-19T09:14:14.312Z,110
2016-05-19T09:15:14.564Z,110
2016-05-19T09:16:14.568Z,110
2016-05-19T09:17:13.585Z,105
2016-05-19T09:18:13.776Z,125
2016-05-19T09:19:13.793Z,125
2016-05-19T09:20:13.766Z,110
2016-05-19T09:21:14.643Z,100
2016-05-19T09:22:14.098Z,125
2016-05-19T09:23:14.664Z,130
2016-05-19T09:24:14.698Z,135
2016-05-19T09:25:14.404Z,140
2016-05-19T09:26:14.078Z,140
2016-05-19T09:27:14.550Z,120
2016-05-19T09:28:14.317Z,105
2016-05-19T09:29:13.820Z,125
2016-05-19T09:30:14.277Z,105
2016-05-19T09:31:14.748Z,95
2016-05-19T09:32:14.454Z,75
2016-05-19T09:33:14.597Z,80
2016-05-19T09:34:14.522Z,70
2016-05-19T09:35:14.602Z,70
2016-05-19T09:36:14.574Z,75
2016-05-19T09:37:14.201Z,95
2016-05-19T09:38:13.908Z,95
2016-05-19T09:39:14.317Z,80
2016-05-19T09:40:14.444Z,80
2016-05-19T09:41:14.197Z,85
2016-05-19T09:42:14.152Z,80
2016-05-19T09:43:14.296Z,90
2016-05-19T09:44:14.127Z,85
2016-05-19T09:45:14.395Z,80
2016-05-19T09:46:14.538Z,75
2016-05-19T09:47:14.557Z,85
2016-05-19T09:48:14.513Z,85
2016-05-19T09:49:14.640Z,80
2016-05-19T09:50:14.877Z,80
2016-05-19T09:51:14.740Z,90
2016-05-19T09:52:14.648Z,100
2016-05-19T09:53:14.432Z,110
2016-05-19T09:54:14.201Z,115
2016-05-19T09:55:14.062Z,120
2016-05-19T09:56:14.393Z,125
2016-05-19T09:57:13.834Z,130
2016-05-19T09:58:14.758Z,135
2016-05-19T09:59:14.276Z,135
2016-05-19T10:00:14.576Z,140
2016-05-19T10:01:14.313Z,140
2016-05-19T10:02:13.706Z,140
2016-05-19T10:03:13.944Z,145
2016-05-19T10:04:13.837Z,145
2016-05-19T10:05:14.277Z,145
2016-05-19T10:06:13.920Z,145
2016-05-19T10:07:14.470Z,140
2016-05-19T10:08:14.364Z,135
2016-05-19T10:09:15.178Z,135
2016-05-19T10:10:14.228Z,135
2016-05-19T10:11:13.824Z,130
2016-05-19T10:12:14.233Z,135
2016-05-19T10:13:13.971Z,135
2016-05-19T10:14:14.302Z,135
2016-05-19T10:15:14.366Z,130
2016-05-19T10:16:14.463Z,120
2016-05-19T10:17:14.294Z,105
2016-05-19T10:18:14.390Z,100
2016-05-19T10:19:14.502Z,95
2016-05-19T10:20:14.662Z,95
2016-05-19T10:21:13.680Z,105
2016-05-19T10:22:13.838Z,120
2016-05-19T10:23:13.841Z,125
2016-05-19T10:24:13.828Z,125
2016-05-19T10:25:13.706Z,135
2016-05-19T10:26:13.834Z,145
2016-05-19T10:27:13.837Z,140
2016-05-19T10:28:13.714Z,125
2016-05-19T10:29:13.842Z,115
2016-05-19T10:30:13.829Z,110
2016-05-19T10:31:13.847Z,115
2016-05-19T10:32:13.694Z,135
2016-05-19T10:33:13.837Z,155
2016-05-19T10:34:13.856Z,170
2016-05-19T10:35:13.561Z,155
2016-05-19T10:36:13.705Z,150
2016-05-19T10:37:13.847Z,155
2016-05-19T10:38:13.725Z,150
2016-05-19T10:39:13.994Z,160
2016-05-19T10:40:13.856Z,145
2016-05-19T10:41:13.874Z,130
2016-05-19T10:42:13.877Z,115
2016-05-19T10:43:13.880Z,100
2016-05-19T10:44:13.866Z,100
2016-05-19T10:45:13.900Z,105
2016-05-19T10:46:13.872Z,110
2016-05-19T10:47:13.563Z,120
2016-05-19T10:48:13.862Z,125
2016-05-19T10:49:13.880Z,135
2016-05-19T10:50:13.882Z,140
2016-05-19T10:51:13.870Z,135
2016-05-19T10:52:13.732Z,140
2016-05-19T10:53:13.876Z,160
2016-05-19T10:54:13.487Z,150
2016-05-19T10:55:13.896Z,155
2016-05-19T10:56:13.743Z,170
2016-05-19T10:57:13.745Z,175
2016-05-19T10:58:13.747Z,170
2016-05-19T10:59:13.892Z,170
2016-05-19T11:00:13.598Z,165
2016-05-19T11:01:13.897Z,155
2016-05-19T11:02:13.759Z,150
2016-05-19T11:03:13.902Z,155
2016-05-19T11:04:13.889Z,155
2016-05-19T11:05:13.750Z,155
2016-05-19T11:06:13.925Z,160
2016-05-19T11:07:13.913Z,160
2016-05-19T11:08:13.744Z,165
2016-05-19T11:09:14.137Z,160
2016-05-19T11:10:13.921Z,175
2016-05-19T11:11:13.938Z,180
2016-05-19T11:12:13.910Z,180
2016-05-19T11:13:13.930Z,150
2016-05-19T11:14:13.916Z,140
2016-05-19T11:15:13.919Z,135
2016-05-19T11:16:13.921Z,150
2016-05-19T11:17:13.940Z,160
2016-05-19T11:18:13.598Z,165
2016-05-19T11:19:13.788Z,175
2016-05-19T11:20:13.791Z,180
2016-05-19T11:21:14.138Z,200
2016-05-19T11:22:13.468Z,205
2016-05-19T11:23:13.940Z,210
2016-05-19T11:24:13.880Z,215
2016-05-19T11:25:13.962Z,230
2016-05-19T11:26:13.964Z,240
2016-05-19T11:27:13.951Z,230
2016-05-19T11:28:13.782Z,215
2016-05-19T11:29:13.832Z,200
2016-05-19T11:30:13.803Z,195
2016-05-19T11:31:13.962Z,190
2016-05-19T11:32:13.823Z,180
2016-05-19T11:33:13.951Z,150
2016-05-19T11:34:13.813Z,145
2016-05-19T11:35:13.816Z,160
2016-05-19T11:36:13.819Z,145
2016-05-19T11:37:13.822Z,150
2016-05-19T11:38:13.980Z,160
2016-05-19T11:39:13.842Z,155
2016-05-19T11:40:13.985Z,175
2016-05-19T11:41:13.988Z,200
2016-05-19T11:42:13.664Z,225
2016-05-19T11:43:13.994Z,235
2016-05-19T11:44:13.980Z,240
2016-05-19T11:45:13.983Z,240
2016-05-19T11:46:13.830Z,245
2016-05-19T11:47:14.043Z,250
2016-05-19T11:48:14.069Z,245
2016-05-19T11:49:14.128Z,250
2016-05-19T11:50:14.156Z,235
2016-05-19T11:51:14.214Z,245
2016-05-19T11:52:14.218Z,260
2016-05-19T11:53:14.251Z,265
2016-05-19T11:54:14.049Z,265
2016-05-19T11:55:14.113Z,265
2016-05-19T11:56:14.286Z,255
2016-05-19T11:57:14.295Z,235
2016-05-19T11:58:14.303Z,235
2016-05-19T11:59:13.858Z,230
2016-05-19T12:00:14.320Z,235
2016-05-19T12:01:14.344Z,240
2016-05-19T12:02:14.333Z,225
2016-05-19T12:03:14.197Z,235
2016-05-19T12:04:14.185Z,220
2016-05-19T12:05:14.065Z,215
2016-05-19T12:06:14.351Z,205
2016-05-19T12:07:14.370Z,215
2016-05-19T12:08:14.202Z,215
2016-05-19T12:09:14.986Z,215
2016-05-19T12:10:14.364Z,220
2016-05-19T12:11:14.228Z,220
2016-05-19T12:12:14.449Z,210
2016-05-19T12:13:14.249Z,190
2016-05-19T12:14:14.424Z,185
2016-05-19T12:15:15.130Z,180
2016-05-19T12:16:14.384Z,175
2016-05-19T12:17:14.386Z,170
2016-05-19T12:18:14.405Z,160
2016-05-19T12:19:14.236Z,150
2016-05-19T12:20:14.394Z,140
2016-05-19T12:21:14.396Z,140
2016-05-19T12:22:14.243Z,145
2016-05-19T12:23:14.090Z,130
2016-05-19T12:24:14.827Z,115
2016-05-19T12:25:14.251Z,110
2016-05-19T12:26:14.426Z,100
2016-05-19T12:27:14.257Z,95
2016-05-19T12:28:14.432Z,85
2016-05-19T12:29:14.434Z,65
2016-05-19T12:30:14.281Z,50
2016-05-19T12:31:14.440Z,55
2016-05-19T12:32:14.427Z,60
2016-05-19T12:33:14.445Z,65
2016-05-19T12:34:14.448Z,70
2016-05-19T12:35:14.450Z,75
2016-05-19T12:36:14.437Z,65
2016-05-19T12:37:14.456Z,55
2016-05-19T12:38:14.459Z,50
2016-05-19T12:39:14.492Z,40
2016-05-19T12:40:14.448Z,35
2016-05-19T12:41:14.467Z,45
2016-05-19T12:42:14.454Z,55
2016-05-19T12:43:14.159Z,65
2016-05-19T12:44:14.475Z,70
2016-05-19T12:45:14.477Z,75
2016-05-19T12:46:14.464Z,80
2016-05-19T12:47:14.483Z,85
2016-05-19T12:48:14.485Z,90
2016-05-19T12:49:14.472Z,95
2016-05-19T12:50:14.491Z,105
2016-05-19T12:51:14.494Z,110
2016-05-19T12:52:14.340Z,110
2016-05-19T12:53:14.515Z,115
2016-05-19T12:54:14.205Z,120
2016-05-19T12:55:14.504Z,125
2016-05-19T12:56:14.507Z,130
2016-05-19T12:57:14.494Z,140
2016-05-19T12:58:14.356Z,145
2016-05-19T12:59:14.360Z,145
2016-05-19T13:00:14.534Z,145
2016-05-19T13:01:14.505Z,140
2016-05-19T13:02:14.367Z,140
2016-05-19T13:03:14.510Z,140
2016-05-19T13:04:14.215Z,140
2016-05-19T13:05:14.375Z,140
2016-05-19T13:06:14.378Z,140
2016-05-19T13:07:14.521Z,140
2016-05-19T13:08:14.540Z,140
2016-05-19T13:09:14.417Z,135
2016-05-19T13:10:14.529Z,135
2016-05-19T13:11:14.531Z,130
2016-05-19T13:12:14.534Z,130
2016-05-19T13:13:14.522Z,130
2016-05-19T13:14:14.415Z,130
2016-05-19T13:15:14.574Z,135
2016-05-19T13:16:14.388Z,140
2016-05-19T13:17:14.235Z,145
2016-05-19T13:18:14.426Z,150
2016-05-19T13:19:14.553Z,145
2016-05-19T13:20:14.556Z,145
2016-05-19T13:21:14.418Z,140
2016-05-19T13:22:14.577Z,135
2016-05-19T13:23:14.408Z,130
2016-05-19T13:24:14.676Z,130
2016-05-19T13:25:14.569Z,125
2016-05-19T13:26:14.588Z,125
2016-05-19T13:27:14.560Z,130
2016-05-19T13:28:14.578Z,135
2016-05-19T13:29:14.439Z,140
2016-05-19T13:30:14.582Z,145
2016-05-19T13:31:14.413Z,145
2016-05-19T13:32:14.416Z,140
2016-05-19T13:33:14.590Z,135
2016-05-19T13:34:14.593Z,130
2016-05-19T13:35:14.440Z,125
2016-05-19T13:36:14.599Z,125
2016-05-19T13:37:14.601Z,125
2016-05-19T13:38:14.448Z,130
2016-05-19T13:39:14.951Z,135
2016-05-19T13:40:14.453Z,140
2016-05-19T13:41:14.472Z,140
2016-05-19T13:42:14.459Z,145
2016-05-19T13:43:14.462Z,140
2016-05-19T13:44:14.605Z,140
2016-05-19T13:45:14.655Z,140
2016-05-19T13:46:14.626Z,135
2016-05-19T13:47:14.628Z,130
2016-05-19T13:48:14.647Z,125
2016-05-19T13:49:14.478Z,125
2016-05-19T13:50:14.464Z,125
2016-05-19T13:51:14.639Z,125
2016-05-19T13:52:14.658Z,130
2016-05-19T13:53:14.676Z,130
2016-05-19T13:54:14.725Z,130
2016-05-19T13:55:14.541Z,130
2016-05-19T13:56:14.496Z,130
2016-05-19T13:57:14.655Z,125
2016-05-19T13:58:14.518Z,125
2016-05-19T13:59:14.645Z,120
2016-05-19T14:00:14.335Z,120
2016-05-19T14:01:14.665Z,120
2016-05-19T14:02:14.669Z,120
2016-05-19T14:03:14.640Z,125
2016-05-19T14:04:14.518Z,125
2016-05-19T14:05:14.521Z,125
2016-05-19T14:06:14.351Z,135
2016-05-19T14:07:14.667Z,140
2016-05-19T14:08:14.716Z,150
2016-05-19T14:09:15.265Z,160
2016-05-19T14:10:14.676Z,165
2016-05-19T14:11:14.725Z,170
2016-05-19T14:12:14.742Z,175
2016-05-19T14:13:14.731Z,180
2016-05-19T14:14:14.717Z,180
2016-05-19T14:15:14.735Z,185